Time;durP1;ratioP1;P1;durP2;ratioP2;P2;SDS_P1;SDS_P2;PMS_P1;PMS_P2;Temp;Humidity;BMP_temperature;BMP_pressure;BME280_temperature;BME280_humidity;BME280_pressure;Samples;Min_cycle;Max_cycle;Signal;HPM_P1;HPM_P2
2023/08/22 00:01:36;;;;;;;8.10;3.20;;;;;;;;;;5047249;28;20955;-77
2023/08/22 00:04:03;;;;;;;4.10;3.13;;;;;;;;;;5048612;28;20472;-77
2023/08/22 00:06:30;;;;;;;4.47;3.00;;;;;;;;;;5049415;28;20885;-77
2023/08/22 00:08:57;;;;;;;9.23;3.20;;;;;;;;;;5043127;28;20476;-77
2023/08/22 00:11:23;;;;;;;3.70;3.30;;;;;;;;;;5049473;28;20451;-77
2023/08/22 00:13:49;;;;;;;3.83;3.20;;;;;;;;;;5041977;28;20467;-77
2023/08/22 00:16:17;;;;;;;4.03;3.63;;;;;;;;;;5044767;28;20527;-77
2023/08/22 00:18:44;;;;;;;6.60;4.10;;;;;;;;;;5044685;28;20476;-77
2023/08/22 00:21:10;;;;;;;4.43;3.63;;;;;;;;;;5041284;28;20464;-78
2023/08/22 00:23:37;;;;;;;6.57;3.87;;;;;;;;;;5048884;28;20471;-77
2023/08/22 00:26:04;;;;;;;5.10;4.03;;;;;;;;;;5046831;28;20526;-77
2023/08/22 00:28:30;;;;;;;10.57;4.23;;;;;;;;;;5042210;28;20457;-77
2023/08/22 00:30:56;;;;;;;7.60;4.57;;;;;;;;;;5048012;28;20456;-77
2023/08/22 00:33:24;;;;;;;5.17;3.37;;;;;;;;;;5047626;28;20475;-77
2023/08/22 00:35:50;;;;;;;6.13;3.73;;;;;;;;;;5044962;28;20467;-77
2023/08/22 00:38:17;;;;;;;6.07;3.20;;;;;;;;;;5044451;28;20467;-78
2023/08/22 00:40:43;;;;;;;4.17;3.60;;;;;;;;;;5046048;28;20444;-77
2023/08/22 00:43:10;;;;;;;4.60;3.17;;;;;;;;;;5046425;28;20476;-78
2023/08/22 00:45:37;;;;;;;7.40;3.90;;;;;;;;;;5041827;28;20474;-77
2023/08/22 00:48:03;;;;;;;6.47;3.17;;;;;;;;;;5044284;28;20457;-77
2023/08/22 00:50:32;;;;;;;6.87;3.30;;;;;;;;;;5045425;28;20480;-77
2023/08/22 00:52:59;;;;;;;8.43;4.23;;;;;;;;;;5042169;28;21071;-76
2023/08/22 00:55:25;;;;;;;6.37;4.87;;;;;;;;;;5046425;28;21025;-78
2023/08/22 00:57:52;;;;;;;8.80;4.10;;;;;;;;;;5043902;28;20543;-78
2023/08/22 01:00:18;;;;;;;6.43;3.97;;;;;;;;;;5046396;28;20472;-78
2023/08/22 01:02:45;;;;;;;5.53;4.00;;;;;;;;;;5049384;28;20854;-78
2023/08/22 01:05:11;;;;;;;5.70;4.57;;;;;;;;;;5048533;28;21010;-78
2023/08/22 01:07:45;;;;;;;4.53;3.90;;;;;;;;;;5044369;28;20460;-77
2023/08/22 01:10:14;;;;;;;4.90;3.80;;;;;;;;;;5036756;28;20496;-78
2023/08/22 01:12:44;;;;;;;5.07;3.33;;;;;;;;;;5042290;28;20487;-77
2023/08/22 01:15:13;;;;;;;3.40;3.10;;;;;;;;;;5042296;28;20491;-78
2023/08/22 01:17:40;;;;;;;5.60;4.17;;;;;;;;;;5046236;28;20460;-78
2023/08/22 01:20:11;;;;;;;6.43;3.70;;;;;;;;;;5043812;28;20475;-78
2023/08/22 01:22:39;;;;;;;7.10;3.87;;;;;;;;;;5042178;28;20536;-78
2023/08/22 01:25:06;;;;;;;4.33;3.20;;;;;;;;;;5043417;28;20569;-77
2023/08/22 01:27:36;;;;;;;6.40;3.80;;;;;;;;;;5045708;28;20459;-77
2023/08/22 01:30:07;;;;;;;4.87;4.20;;;;;;;;;;5042742;28;20479;-77
2023/08/22 01:32:37;;;;;;;10.07;3.97;;;;;;;;;;5041131;28;20476;-77
2023/08/22 01:35:06;;;;;;;7.40;3.57;;;;;;;;;;5043429;28;20501;-77
2023/08/22 01:37:33;;;;;;;4.47;3.57;;;;;;;;;;5042593;28;20490;-77
2023/08/22 01:40:04;;;;;;;5.40;3.50;;;;;;;;;;5042418;28;20484;-77
2023/08/22 01:42:31;;;;;;;6.23;3.87;;;;;;;;;;5045498;28;20484;-77
2023/08/22 01:44:57;;;;;;;4.97;4.47;;;;;;;;;;5043790;28;20481;-77
2023/08/22 01:47:24;;;;;;;8.20;3.83;;;;;;;;;;5042355;28;20483;-77
2023/08/22 01:49:50;;;;;;;6.13;3.90;;;;;;;;;;5046208;28;20483;-77
2023/08/22 01:52:16;;;;;;;7.60;3.83;;;;;;;;;;5046725;28;20484;-77
2023/08/22 01:54:44;;;;;;;5.80;4.20;;;;;;;;;;5045116;28;20463;-78
2023/08/22 01:57:12;;;;;;;5.13;3.40;;;;;;;;;;5048246;28;20961;-77
2023/08/22 01:59:38;;;;;;;4.67;4.23;;;;;;;;;;5051101;28;20470;-77
2023/08/22 02:02:04;;;;;;;6.63;3.70;;;;;;;;;;5049891;28;20487;-77
2023/08/22 02:04:30;;;;;;;6.80;3.20;;;;;;;;;;5044808;28;20477;-77
2023/08/22 02:06:57;;;;;;;5.77;3.23;;;;;;;;;;5045519;28;20460;-77
2023/08/22 02:09:23;;;;;;;5.63;3.27;;;;;;;;;;5049090;28;20574;-77
2023/08/22 02:11:50;;;;;;;4.63;3.40;;;;;;;;;;5049519;28;20483;-77
2023/08/22 02:14:17;;;;;;;5.13;3.57;;;;;;;;;;5045579;28;20859;-77
2023/08/22 02:16:45;;;;;;;4.30;3.70;;;;;;;;;;5048620;28;20467;-77
2023/08/22 02:19:11;;;;;;;5.27;3.87;;;;;;;;;;5045538;28;21009;-77
2023/08/22 02:21:38;;;;;;;13.30;4.63;;;;;;;;;;5046348;28;20464;-77
2023/08/22 02:24:04;;;;;;;4.90;3.87;;;;;;;;;;5045583;28;20471;-77
2023/08/22 02:26:31;;;;;;;5.93;3.43;;;;;;;;;;5045671;28;20472;-77
2023/08/22 02:28:57;;;;;;;6.00;3.93;;;;;;;;;;5046209;28;20468;-76
2023/08/22 02:31:25;;;;;;;12.33;4.33;;;;;;;;;;5047028;28;20460;-77
2023/08/22 02:33:51;;;;;;;4.83;3.17;;;;;;;;;;5043970;28;20475;-77
2023/08/22 02:36:17;;;;;;;6.23;3.63;;;;;;;;;;5044702;28;20460;-77
2023/08/22 02:38:44;;;;;;;5.63;3.90;;;;;;;;;;5048785;28;20984;-77
2023/08/22 02:41:10;;;;;;;4.90;3.60;;;;;;;;;;5048226;28;20452;-77
2023/08/22 02:43:36;;;;;;;5.90;3.37;;;;;;;;;;5044774;28;20476;-78
2023/08/22 02:46:03;;;;;;;5.53;4.20;;;;;;;;;;5048846;28;20460;-77
2023/08/22 02:48:31;;;;;;;5.10;3.60;;;;;;;;;;5048626;28;20487;-77
2023/08/22 02:50:58;;;;;;;6.60;3.60;;;;;;;;;;5042718;28;20995;-77
2023/08/22 02:53:24;;;;;;;5.37;4.40;;;;;;;;;;5044140;28;20488;-77
2023/08/22 02:55:50;;;;;;;4.27;3.67;;;;;;;;;;5049023;28;20461;-77
2023/08/22 02:58:17;;;;;;;8.53;4.27;;;;;;;;;;5047303;28;20815;-77
2023/08/22 03:00:45;;;;;;;7.90;3.93;;;;;;;;;;5046525;28;20447;-77
2023/08/22 03:03:12;;;;;;;4.97;3.53;;;;;;;;;;5044327;28;20477;-77
2023/08/22 03:05:39;;;;;;;6.07;3.80;;;;;;;;;;5041127;28;20493;-77
2023/08/22 03:08:06;;;;;;;6.43;3.60;;;;;;;;;;5048284;28;20464;-77
2023/08/22 03:10:32;;;;;;;4.40;3.30;;;;;;;;;;5044627;28;20480;-77
2023/08/22 03:12:59;;;;;;;3.57;3.23;;;;;;;;;;5045781;28;20511;-77
2023/08/22 03:15:27;;;;;;;3.20;2.90;;;;;;;;;;5046138;28;20480;-77
2023/08/22 03:17:53;;;;;;;7.10;3.87;;;;;;;;;;5046119;28;20451;-77
2023/08/22 03:20:20;;;;;;;3.67;3.27;;;;;;;;;;5047770;28;20475;-77
2023/08/22 03:22:48;;;;;;;7.07;4.07;;;;;;;;;;5047530;28;20856;-77
2023/08/22 03:25:15;;;;;;;6.03;3.70;;;;;;;;;;5046426;28;20498;-77
2023/08/22 03:27:41;;;;;;;4.10;3.60;;;;;;;;;;5048314;28;20468;-77
2023/08/22 03:30:08;;;;;;;8.10;4.30;;;;;;;;;;5043529;28;21001;-77
2023/08/22 03:32:34;;;;;;;11.20;4.23;;;;;;;;;;5045242;28;20472;-77
2023/08/22 03:35:00;;;;;;;3.83;3.30;;;;;;;;;;5043865;28;20490;-77
2023/08/22 03:37:27;;;;;;;7.27;4.17;;;;;;;;;;5049109;28;20462;-77
2023/08/22 03:39:54;;;;;;;10.53;4.20;;;;;;;;;;5045350;28;20498;-77
2023/08/22 03:42:22;;;;;;;6.77;3.50;;;;;;;;;;5043885;28;20475;-77
2023/08/22 03:44:48;;;;;;;4.13;3.20;;;;;;;;;;5044898;28;21029;-77
2023/08/22 03:47:15;;;;;;;5.80;3.60;;;;;;;;;;5048133;28;20457;-77
2023/08/22 03:49:41;;;;;;;6.37;3.93;;;;;;;;;;5050584;28;20479;-77
2023/08/22 03:52:07;;;;;;;5.93;3.57;;;;;;;;;;5046847;28;20478;-77
2023/08/22 03:54:34;;;;;;;6.43;3.30;;;;;;;;;;5045662;28;20476;-77
2023/08/22 03:57:01;;;;;;;9.63;3.37;;;;;;;;;;5045929;28;20948;-77
2023/08/22 03:59:28;;;;;;;9.50;3.80;;;;;;;;;;5050151;28;20500;-78
2023/08/22 04:01:54;;;;;;;5.13;4.20;;;;;;;;;;5048030;28;21001;-77
2023/08/22 04:04:20;;;;;;;7.03;3.83;;;;;;;;;;5047574;28;20483;-77
2023/08/22 04:06:47;;;;;;;5.27;4.10;;;;;;;;;;5046769;28;20460;-78
2023/08/22 04:09:15;;;;;;;4.40;3.90;;;;;;;;;;5039518;28;21001;-78
2023/08/22 04:11:42;;;;;;;6.47;4.00;;;;;;;;;;5043655;28;20483;-77
2023/08/22 04:14:10;;;;;;;3.60;3.30;;;;;;;;;;5043759;28;20487;-78
2023/08/22 04:16:38;;;;;;;4.03;3.63;;;;;;;;;;5045638;28;20459;-78
2023/08/22 04:19:04;;;;;;;12.13;4.70;;;;;;;;;;5044558;28;20457;-77
2023/08/22 04:21:31;;;;;;;4.00;3.37;;;;;;;;;;5045886;28;20464;-78
2023/08/22 04:23:57;;;;;;;4.67;3.47;;;;;;;;;;5047359;28;21032;-78
2023/08/22 04:26:24;;;;;;;6.97;4.27;;;;;;;;;;5043498;28;20486;-77
2023/08/22 04:28:50;;;;;;;3.73;3.10;;;;;;;;;;5044417;28;20479;-78
2023/08/22 04:31:18;;;;;;;4.33;3.73;;;;;;;;;;5046423;28;20542;-77
2023/08/22 04:33:44;;;;;;;5.43;4.30;;;;;;;;;;5042677;28;20471;-78
2023/08/22 04:36:11;;;;;;;5.10;3.47;;;;;;;;;;5042340;28;20487;-78
2023/08/22 04:38:37;;;;;;;7.57;3.70;;;;;;;;;;5043834;28;20441;-78
2023/08/22 04:41:03;;;;;;;5.00;4.20;;;;;;;;;;5043723;28;20947;-78
2023/08/22 04:43:30;;;;;;;5.00;3.37;;;;;;;;;;5048763;28;20480;-78
2023/08/22 04:45:59;;;;;;;4.60;3.90;;;;;;;;;;5042326;28;20463;-78
2023/08/22 04:48:28;;;;;;;6.43;3.87;;;;;;;;;;5044095;28;20547;-78
2023/08/22 04:50:55;;;;;;;7.47;4.43;;;;;;;;;;5039410;28;20485;-78
2023/08/22 04:53:21;;;;;;;4.70;4.10;;;;;;;;;;5046931;28;20483;-78
2023/08/22 04:55:48;;;;;;;3.63;3.20;;;;;;;;;;5043336;28;20449;-78
2023/08/22 04:58:14;;;;;;;6.53;4.20;;;;;;;;;;5044320;28;20531;-79
2023/08/22 05:00:41;;;;;;;4.03;2.87;;;;;;;;;;5043981;28;20525;-78
2023/08/22 05:03:08;;;;;;;5.53;4.30;;;;;;;;;;5043263;28;20478;-78
2023/08/22 05:05:35;;;;;;;6.13;4.03;;;;;;;;;;5040278;28;20460;-78
2023/08/22 05:08:02;;;;;;;5.80;3.87;;;;;;;;;;5043387;28;20453;-78
2023/08/22 05:10:28;;;;;;;5.77;4.13;;;;;;;;;;5044261;28;20530;-78
2023/08/22 05:12:54;;;;;;;4.87;4.10;;;;;;;;;;5042415;28;20556;-78
2023/08/22 05:15:21;;;;;;;4.87;4.50;;;;;;;;;;5042537;28;20464;-78
2023/08/22 05:17:47;;;;;;;6.93;4.53;;;;;;;;;;5041530;28;20456;-78
2023/08/22 05:20:14;;;;;;;6.37;4.87;;;;;;;;;;5043185;28;20494;-78
2023/08/22 05:22:41;;;;;;;5.30;4.40;;;;;;;;;;5043692;28;20472;-78
2023/08/22 05:25:08;;;;;;;4.33;3.93;;;;;;;;;;5046054;28;20476;-78
2023/08/22 05:27:35;;;;;;;4.73;3.77;;;;;;;;;;5049343;28;20455;-78
2023/08/22 05:30:01;;;;;;;7.13;3.73;;;;;;;;;;5047693;28;20483;-78
2023/08/22 05:32:27;;;;;;;4.20;3.90;;;;;;;;;;5046166;28;20488;-77
2023/08/22 05:34:54;;;;;;;6.17;4.13;;;;;;;;;;5048623;28;20476;-79
2023/08/22 05:37:20;;;;;;;6.47;4.37;;;;;;;;;;5045679;28;20814;-79
2023/08/22 05:39:48;;;;;;;6.00;3.50;;;;;;;;;;5046993;28;20851;-78
2023/08/22 05:42:15;;;;;;;6.00;3.70;;;;;;;;;;5049903;28;20479;-79
2023/08/22 05:44:41;;;;;;;8.20;4.27;;;;;;;;;;5044805;28;20467;-78
2023/08/22 05:47:09;;;;;;;10.47;4.20;;;;;;;;;;5048401;28;20954;-79
2023/08/22 05:49:35;;;;;;;4.83;3.90;;;;;;;;;;5050506;28;20479;-79
2023/08/22 05:52:03;;;;;;;8.20;3.90;;;;;;;;;;5050396;28;20490;-79
2023/08/22 05:54:31;;;;;;;4.37;3.43;;;;;;;;;;5046747;28;20530;-79
2023/08/22 05:56:58;;;;;;;5.17;4.30;;;;;;;;;;5048539;28;20452;-79
2023/08/22 05:59:25;;;;;;;4.63;4.27;;;;;;;;;;5045161;28;20467;-79
2023/08/22 06:01:51;;;;;;;6.77;5.13;;;;;;;;;;5043933;28;20890;-79
2023/08/22 06:04:18;;;;;;;5.40;4.90;;;;;;;;;;5050671;28;20472;-79
2023/08/22 06:06:44;;;;;;;4.57;4.17;;;;;;;;;;5048244;28;20444;-79
2023/08/22 06:09:11;;;;;;;7.50;4.53;;;;;;;;;;5046738;28;20491;-79
2023/08/22 06:11:37;;;;;;;5.37;4.40;;;;;;;;;;5045368;28;20475;-78
2023/08/22 06:14:05;;;;;;;5.90;4.07;;;;;;;;;;5049163;28;20471;-79
2023/08/22 06:16:32;;;;;;;6.43;4.53;;;;;;;;;;5043680;28;21033;-79
2023/08/22 06:18:58;;;;;;;6.40;5.00;;;;;;;;;;5045937;28;20483;-79
2023/08/22 06:21:25;;;;;;;13.47;5.10;;;;;;;;;;5047459;28;20449;-79
2023/08/22 06:23:51;;;;;;;6.33;5.70;;;;;;;;;;5047832;28;20853;-79
2023/08/22 06:26:17;;;;;;;13.93;8.07;;;;;;;;;;5047673;28;20448;-79
2023/08/22 06:28:44;;;;;;;10.63;7.87;;;;;;;;;;5044590;28;20471;-79
2023/08/22 06:31:12;;;;;;;7.93;6.93;;;;;;;;;;5051394;28;20486;-79
2023/08/22 06:33:40;;;;;;;16.40;10.13;;;;;;;;;;5044761;28;20537;-79
2023/08/22 06:36:07;;;;;;;11.70;8.67;;;;;;;;;;5050218;28;20535;-78
2023/08/22 06:38:34;;;;;;;16.53;10.30;;;;;;;;;;5047523;28;21024;-79
2023/08/22 06:41:03;;;;;;;11.90;9.40;;;;;;;;;;5047763;28;20464;-79
2023/08/22 06:43:29;;;;;;;12.93;10.47;;;;;;;;;;5045686;28;20587;-79
2023/08/22 06:45:57;;;;;;;13.83;9.77;;;;;;;;;;5044461;28;20444;-79
2023/08/22 06:48:25;;;;;;;10.90;9.40;;;;;;;;;;5042748;28;20978;-79
2023/08/22 06:50:51;;;;;;;15.80;9.57;;;;;;;;;;5044929;28;20495;-79
2023/08/22 06:53:17;;;;;;;17.03;10.70;;;;;;;;;;5046968;28;20467;-78
2023/08/22 06:55:46;;;;;;;14.40;9.03;;;;;;;;;;5048736;28;20459;-79
2023/08/22 06:58:12;;;;;;;14.63;8.97;;;;;;;;;;5046131;28;20463;-79
2023/08/22 07:00:39;;;;;;;11.93;9.50;;;;;;;;;;5044994;28;20452;-79
2023/08/22 07:03:05;;;;;;;13.70;10.87;;;;;;;;;;5048954;28;20503;-79
2023/08/22 07:05:34;;;;;;;11.10;10.00;;;;;;;;;;5045550;28;20485;-79
2023/08/22 07:08:01;;;;;;;14.13;10.40;;;;;;;;;;5043419;28;20483;-79
2023/08/22 07:10:27;;;;;;;15.37;11.00;;;;;;;;;;5045805;28;20472;-79
2023/08/22 07:12:53;;;;;;;18.77;10.73;;;;;;;;;;5046664;28;20471;-79
2023/08/22 07:15:20;;;;;;;10.57;9.57;;;;;;;;;;5042413;28;20476;-78
2023/08/22 07:17:47;;;;;;;11.20;9.90;;;;;;;;;;5048643;28;20542;-79
2023/08/22 07:20:13;;;;;;;11.83;9.20;;;;;;;;;;5046279;28;20479;-78
2023/08/22 07:22:41;;;;;;;13.60;9.00;;;;;;;;;;5045095;28;20477;-79
2023/08/22 07:25:08;;;;;;;12.63;9.27;;;;;;;;;;5046795;28;20480;-79
2023/08/22 07:27:34;;;;;;;14.30;9.37;;;;;;;;;;5046399;28;20463;-79
2023/08/22 07:30:00;;;;;;;13.50;7.97;;;;;;;;;;5045474;28;20475;-79
2023/08/22 07:32:27;;;;;;;12.80;9.07;;;;;;;;;;5043615;28;20493;-79
2023/08/22 07:34:54;;;;;;;12.03;9.17;;;;;;;;;;5044844;28;20499;-79
2023/08/22 07:37:20;;;;;;;10.70;8.13;;;;;;;;;;5049415;28;20456;-79
2023/08/22 07:39:48;;;;;;;9.77;8.77;;;;;;;;;;5044653;28;20480;-79
2023/08/22 07:42:16;;;;;;;14.53;9.03;;;;;;;;;;5049273;28;20471;-79
2023/08/22 07:44:43;;;;;;;13.30;9.10;;;;;;;;;;5045546;28;20476;-79
2023/08/22 07:47:09;;;;;;;15.23;8.40;;;;;;;;;;5044090;28;20437;-79
2023/08/22 07:49:35;;;;;;;15.63;8.03;;;;;;;;;;5041895;28;20467;-79
2023/08/22 07:52:02;;;;;;;13.93;8.23;;;;;;;;;;5042328;28;20487;-79
2023/08/22 07:54:29;;;;;;;12.50;9.23;;;;;;;;;;5041928;28;20479;-78
2023/08/22 07:56:57;;;;;;;9.97;8.83;;;;;;;;;;5048250;28;20964;-79
2023/08/22 07:59:23;;;;;;;11.47;8.40;;;;;;;;;;5044807;28;20483;-79
2023/08/22 08:01:49;;;;;;;11.43;9.77;;;;;;;;;;5041810;28;20877;-79
2023/08/22 08:04:16;;;;;;;14.53;9.17;;;;;;;;;;5044230;28;20476;-79
2023/08/22 08:06:43;;;;;;;15.20;9.00;;;;;;;;;;5048390;28;20539;-79
2023/08/22 08:09:11;;;;;;;12.80;9.83;;;;;;;;;;5042860;28;20475;-79
2023/08/22 08:11:37;;;;;;;12.33;9.70;;;;;;;;;;5044904;28;20493;-79
2023/08/22 08:14:05;;;;;;;13.50;9.40;;;;;;;;;;5045340;28;20484;-79
2023/08/22 08:16:32;;;;;;;10.10;8.10;;;;;;;;;;5043580;28;20460;-79
2023/08/22 08:18:59;;;;;;;9.83;8.83;;;;;;;;;;5047011;28;20555;-79
2023/08/22 08:21:25;;;;;;;15.53;9.03;;;;;;;;;;5043910;28;20471;-79
2023/08/22 08:23:51;;;;;;;11.10;9.60;;;;;;;;;;5047553;28;20482;-79
2023/08/22 08:26:18;;;;;;;12.87;9.10;;;;;;;;;;5047895;28;20459;-79
2023/08/22 08:28:45;;;;;;;14.60;8.77;;;;;;;;;;5044006;28;20460;-79
2023/08/22 08:31:13;;;;;;;8.73;7.70;;;;;;;;;;5040460;28;20510;-80
2023/08/22 08:33:39;;;;;;;14.10;7.90;;;;;;;;;;5043319;28;20507;-79
2023/08/22 08:36:06;;;;;;;9.90;6.67;;;;;;;;;;5044279;28;20463;-79
2023/08/22 08:38:33;;;;;;;12.27;7.10;;;;;;;;;;5045859;28;20479;-79
2023/08/22 08:41:01;;;;;;;9.73;7.40;;;;;;;;;;5043583;28;20464;-79
2023/08/22 08:43:29;;;;;;;9.07;6.47;;;;;;;;;;5045733;28;20582;-79
2023/08/22 08:45:56;;;;;;;8.10;6.30;;;;;;;;;;5046486;28;20482;-79
2023/08/22 08:48:24;;;;;;;8.57;6.53;;;;;;;;;;5044744;28;21017;-79
2023/08/22 08:50:51;;;;;;;11.40;7.20;;;;;;;;;;5039281;28;21000;-79
2023/08/22 08:53:18;;;;;;;8.87;6.20;;;;;;;;;;5043017;28;20537;-79
2023/08/22 08:55:45;;;;;;;13.00;7.40;;;;;;;;;;5045734;28;20482;-78
2023/08/22 08:58:11;;;;;;;8.77;5.83;;;;;;;;;;5045827;28;20484;-78
2023/08/22 09:00:38;;;;;;;10.97;7.40;;;;;;;;;;5045103;28;20467;-79
2023/08/22 09:03:06;;;;;;;12.13;6.87;;;;;;;;;;5046985;28;20483;-78
2023/08/22 09:05:34;;;;;;;10.93;6.20;;;;;;;;;;5046413;28;20468;-78
2023/08/22 09:08:14;;;;;;;8.10;5.57;;;;;;;;;;5047110;28;20892;-78
2023/08/22 09:10:41;;;;;;;7.10;4.23;;;;;;;;;;5043841;28;20460;-78
2023/08/22 09:13:07;;;;;;;10.03;3.80;;;;;;;;;;5042813;28;20510;-79
2023/08/22 09:15:33;;;;;;;6.80;3.90;;;;;;;;;;5041071;28;20945;-78
2023/08/22 09:18:00;;;;;;;7.40;3.60;;;;;;;;;;5044521;28;20490;-79
2023/08/22 09:20:28;;;;;;;4.67;2.60;;;;;;;;;;5045783;28;20471;-78
2023/08/22 09:22:56;;;;;;;5.53;2.80;;;;;;;;;;5042871;28;20476;-78
2023/08/22 09:25:22;;;;;;;4.23;2.63;;;;;;;;;;5042513;28;20464;-78
2023/08/22 09:27:49;;;;;;;5.10;2.50;;;;;;;;;;5045676;28;21558;-78
2023/08/22 09:30:20;;;;;;;3.57;2.93;;;;;;;;;;5046032;28;20456;-78
2023/08/22 09:32:57;;;;;;;8.17;2.90;;;;;;;;;;5044071;28;20989;-78
2023/08/22 09:35:28;;;;;;;4.50;2.70;;;;;;;;;;5043244;28;20467;-78
2023/08/22 09:37:56;;;;;;;2.70;2.37;;;;;;;;;;5044204;28;20484;-78
2023/08/22 09:40:23;;;;;;;7.87;2.50;;;;;;;;;;5042593;28;20483;-78
2023/08/22 09:42:50;;;;;;;5.73;2.60;;;;;;;;;;5041022;28;20487;-78
2023/08/22 09:45:18;;;;;;;6.33;3.50;;;;;;;;;;5040660;28;20481;-78
2023/08/22 09:47:47;;;;;;;6.23;2.20;;;;;;;;;;5041540;28;20480;-78
2023/08/22 09:50:14;;;;;;;5.30;2.20;;;;;;;;;;5048242;28;20460;-78
2023/08/22 09:52:40;;;;;;;4.33;2.20;;;;;;;;;;5044808;28;20566;-78
2023/08/22 09:55:11;;;;;;;6.60;2.60;;;;;;;;;;5041886;28;20459;-78
2023/08/22 09:57:38;;;;;;;3.30;2.33;;;;;;;;;;5042410;28;20476;-78
2023/08/22 10:00:05;;;;;;;5.87;2.80;;;;;;;;;;5039827;28;20463;-78
2023/08/22 10:02:33;;;;;;;2.57;2.30;;;;;;;;;;5046900;28;20483;-79
2023/08/22 10:05:00;;;;;;;5.17;2.07;;;;;;;;;;5041351;28;20460;-78
2023/08/22 10:07:27;;;;;;;4.43;2.23;;;;;;;;;;5045211;28;21031;-78
2023/08/22 10:09:53;;;;;;;4.33;2.40;;;;;;;;;;5045196;28;20466;-78
2023/08/22 10:12:21;;;;;;;4.33;2.47;;;;;;;;;;5047191;28;21006;-79
2023/08/22 10:14:49;;;;;;;3.80;2.20;;;;;;;;;;5050205;28;20550;-78
2023/08/22 10:17:15;;;;;;;2.90;2.30;;;;;;;;;;5047316;28;21021;-78
2023/08/22 10:19:42;;;;;;;9.23;3.00;;;;;;;;;;5045589;28;20456;-78
2023/08/22 10:22:10;;;;;;;3.63;2.10;;;;;;;;;;5049616;28;20844;-78
2023/08/22 10:24:36;;;;;;;6.93;2.33;;;;;;;;;;5044851;28;20833;-78
2023/08/22 10:27:04;;;;;;;5.30;2.70;;;;;;;;;;5049574;28;20463;-79
2023/08/22 10:29:34;;;;;;;4.20;1.90;;;;;;;;;;5046100;28;20461;-78
2023/08/22 10:32:19;;;;;;;6.30;2.53;;;;;;;;;;5045706;28;20472;-79
2023/08/22 10:35:05;;;;;;;5.20;1.93;;;;;;;;;;5048754;28;20970;-78
2023/08/22 10:37:31;;;;;;;3.63;2.27;;;;;;;;;;5046288;28;20525;-78
2023/08/22 10:39:59;;;;;;;3.50;1.90;;;;;;;;;;5049674;28;20833;-78
2023/08/22 10:42:25;;;;;;;1.83;1.60;;;;;;;;;;5045359;28;20471;-78
2023/08/22 10:44:54;;;;;;;5.83;1.80;;;;;;;;;;5047423;28;20468;-78
2023/08/22 10:47:22;;;;;;;3.43;1.80;;;;;;;;;;5048394;28;20472;-78
2023/08/22 10:49:49;;;;;;;3.60;1.77;;;;;;;;;;5047817;28;20959;-78
2023/08/22 10:52:17;;;;;;;4.60;1.77;;;;;;;;;;5046762;28;20476;-79
2023/08/22 10:54:56;;;;;;;4.57;1.90;;;;;;;;;;5042487;28;20480;-78
2023/08/22 10:57:23;;;;;;;2.13;1.70;;;;;;;;;;5046593;28;20476;-79
2023/08/22 11:00:05;;;;;;;4.67;1.87;;;;;;;;;;5043917;28;20460;-79
2023/08/22 11:02:32;;;;;;;6.20;1.97;;;;;;;;;;5047676;28;20567;-79
2023/08/22 11:04:59;;;;;;;2.57;2.20;;;;;;;;;;5045626;28;20456;-78
2023/08/22 11:07:26;;;;;;;5.13;1.87;;;;;;;;;;5040970;28;20469;-78
2023/08/22 11:09:54;;;;;;;4.53;2.40;;;;;;;;;;5046709;28;20464;-78
2023/08/22 11:12:21;;;;;;;7.97;2.70;;;;;;;;;;5044611;28;20480;-79
2023/08/22 11:14:47;;;;;;;3.07;1.60;;;;;;;;;;5041927;28;20454;-78
2023/08/22 11:17:15;;;;;;;6.17;2.07;;;;;;;;;;5045498;28;20476;-79
2023/08/22 11:19:42;;;;;;;6.73;1.70;;;;;;;;;;5048133;28;20818;-79
2023/08/22 11:22:09;;;;;;;5.00;1.70;;;;;;;;;;5044612;28;20470;-79
2023/08/22 11:24:35;;;;;;;2.53;1.40;;;;;;;;;;5048085;28;20468;-79
2023/08/22 11:27:03;;;;;;;1.90;0.87;;;;;;;;;;5046602;28;20471;-78
2023/08/22 11:29:30;;;;;;;3.80;1.50;;;;;;;;;;5045312;28;20466;-79
2023/08/22 11:31:57;;;;;;;13.50;2.20;;;;;;;;;;5042918;28;21125;-79
2023/08/22 11:34:25;;;;;;;5.30;1.50;;;;;;;;;;5044044;28;20460;-79
2023/08/22 11:36:52;;;;;;;7.00;1.50;;;;;;;;;;5048836;28;20463;-78
2023/08/22 11:39:18;;;;;;;6.37;1.70;;;;;;;;;;5046738;28;20457;-79
2023/08/22 11:41:45;;;;;;;7.77;1.60;;;;;;;;;;5045313;28;20486;-79
2023/08/22 11:44:13;;;;;;;3.70;1.30;;;;;;;;;;5049249;28;20455;-79
2023/08/22 11:46:43;;;;;;;1.60;1.13;;;;;;;;;;5046445;28;20455;-79
2023/08/22 11:49:09;;;;;;;2.77;1.43;;;;;;;;;;5045327;28;20460;-78
2023/08/22 11:51:37;;;;;;;3.10;1.00;;;;;;;;;;5045394;28;20449;-79
2023/08/22 11:54:03;;;;;;;6.27;1.13;;;;;;;;;;5046504;28;20490;-78
2023/08/22 11:56:30;;;;;;;1.30;1.20;;;;;;;;;;5048763;28;20455;-78
2023/08/22 11:58:57;;;;;;;1.37;1.23;;;;;;;;;;5044398;28;20876;-78
2023/08/22 12:01:24;;;;;;;1.00;1.00;;;;;;;;;;5042283;28;20452;-79
2023/08/22 12:03:55;;;;;;;3.33;1.50;;;;;;;;;;5046262;28;20460;-79
2023/08/22 12:06:21;;;;;;;3.20;1.30;;;;;;;;;;5043812;28;20452;-79
2023/08/22 12:08:56;;;;;;;4.23;1.70;;;;;;;;;;5044327;28;20476;-78
2023/08/22 12:11:22;;;;;;;2.20;1.30;;;;;;;;;;5045136;28;20454;-78
2023/08/22 12:13:48;;;;;;;1.73;1.17;;;;;;;;;;5044267;28;20468;-79
2023/08/22 12:16:15;;;;;;;3.73;1.10;;;;;;;;;;5044248;28;20201;-78
2023/08/22 12:18:42;;;;;;;1.67;1.10;;;;;;;;;;5044828;28;20471;-78
2023/08/22 12:21:08;;;;;;;2.00;1.47;;;;;;;;;;5047499;28;20460;-79
2023/08/22 12:23:35;;;;;;;5.60;1.80;;;;;;;;;;5043972;28;20476;-78
2023/08/22 12:26:03;;;;;;;2.47;1.30;;;;;;;;;;5044231;28;20974;-78
2023/08/22 12:28:29;;;;;;;2.20;1.10;;;;;;;;;;5040311;28;20477;-79
2023/08/22 12:30:55;;;;;;;3.23;1.47;;;;;;;;;;5043234;28;20453;-78
2023/08/22 12:33:22;;;;;;;7.10;1.80;;;;;;;;;;5045416;28;20479;-79
2023/08/22 12:35:48;;;;;;;3.90;1.37;;;;;;;;;;5045718;28;20951;-78
2023/08/22 12:38:15;;;;;;;3.70;2.00;;;;;;;;;;5044984;28;21016;-79
2023/08/22 12:40:43;;;;;;;3.33;1.60;;;;;;;;;;5043308;28;20969;-79
2023/08/22 12:43:13;;;;;;;2.27;1.43;;;;;;;;;;5049467;28;20854;-79
2023/08/22 12:45:39;;;;;;;4.00;1.60;;;;;;;;;;5044021;28;20917;-78
2023/08/22 12:48:07;;;;;;;2.03;1.40;;;;;;;;;;5043623;28;20471;-79
2023/08/22 12:50:33;;;;;;;2.30;1.80;;;;;;;;;;5042429;28;20552;-78
2023/08/22 12:53:00;;;;;;;2.30;1.60;;;;;;;;;;5043038;28;20471;-79
2023/08/22 12:55:26;;;;;;;4.50;1.70;;;;;;;;;;5043750;28;20840;-79
2023/08/22 12:57:54;;;;;;;3.10;1.90;;;;;;;;;;5047411;28;20483;-79
2023/08/22 13:00:22;;;;;;;3.03;1.50;;;;;;;;;;5043636;28;20466;-78
2023/08/22 13:02:48;;;;;;;3.93;1.90;;;;;;;;;;5044440;28;21005;-79
2023/08/22 13:05:15;;;;;;;3.83;1.77;;;;;;;;;;5039867;28;20958;-79
2023/08/22 13:07:43;;;;;;;1.33;1.23;;;;;;;;;;5044388;28;20475;-79
2023/08/22 13:10:09;;;;;;;2.47;1.30;;;;;;;;;;5037955;28;20537;-79
2023/08/22 13:12:36;;;;;;;1.50;1.30;;;;;;;;;;5044011;28;20483;-79
2023/08/22 13:15:03;;;;;;;3.37;1.50;;;;;;;;;;5045288;28;20466;-78
2023/08/22 13:17:31;;;;;;;3.67;1.60;;;;;;;;;;5048023;28;20467;-79
2023/08/22 13:19:57;;;;;;;1.83;1.60;;;;;;;;;;5044567;28;20457;-78
2023/08/22 13:22:24;;;;;;;3.93;1.50;;;;;;;;;;5041700;28;20471;-79
2023/08/22 13:24:50;;;;;;;4.10;1.67;;;;;;;;;;5042794;28;20470;-79
2023/08/22 13:27:18;;;;;;;4.20;2.07;;;;;;;;;;5045025;28;20479;-79
2023/08/22 13:29:44;;;;;;;1.70;1.60;;;;;;;;;;5040799;28;20467;-78
2023/08/22 13:32:10;;;;;;;2.20;1.40;;;;;;;;;;5048230;28;20476;-79
2023/08/22 13:34:38;;;;;;;1.20;1.13;;;;;;;;;;5047462;28;21063;-78
2023/08/22 13:37:05;;;;;;;4.37;1.70;;;;;;;;;;5047157;28;20467;-78
2023/08/22 13:39:31;;;;;;;1.63;1.43;;;;;;;;;;5044521;28;20464;-79
2023/08/22 13:41:58;;;;;;;1.97;1.20;;;;;;;;;;5041273;28;20464;-79
2023/08/22 13:44:25;;;;;;;1.90;1.30;;;;;;;;;;5044837;28;20460;-79
2023/08/22 13:46:51;;;;;;;2.87;1.63;;;;;;;;;;5047961;28;20834;-79
2023/08/22 13:49:18;;;;;;;4.10;1.07;;;;;;;;;;5046058;28;20456;-78
2023/08/22 13:51:45;;;;;;;2.23;1.03;;;;;;;;;;5046616;28;20489;-79
2023/08/22 13:54:13;;;;;;;3.73;1.17;;;;;;;;;;5048079;28;20481;-79
2023/08/22 13:56:39;;;;;;;2.77;1.60;;;;;;;;;;5046703;28;20880;-78
2023/08/22 13:59:05;;;;;;;2.17;1.50;;;;;;;;;;5047242;28;20464;-78
2023/08/22 14:01:32;;;;;;;4.30;1.40;;;;;;;;;;5046733;28;20471;-79
2023/08/22 14:03:59;;;;;;;1.87;1.23;;;;;;;;;;5048255;28;20501;-79
2023/08/22 14:06:25;;;;;;;2.90;0.97;;;;;;;;;;5051745;28;20463;-79
2023/08/22 14:08:53;;;;;;;1.77;1.07;;;;;;;;;;5046547;28;20476;-78
2023/08/22 14:11:19;;;;;;;1.70;1.03;;;;;;;;;;5045846;28;20466;-78
2023/08/22 14:13:46;;;;;;;4.30;1.50;;;;;;;;;;5047532;28;20526;-79
2023/08/22 14:16:12;;;;;;;3.63;1.97;;;;;;;;;;5048874;28;20986;-79
2023/08/22 14:18:40;;;;;;;2.20;1.40;;;;;;;;;;5050913;28;20478;-79
2023/08/22 14:21:06;;;;;;;2.23;1.20;;;;;;;;;;5045099;28;20457;-79
2023/08/22 14:23:32;;;;;;;2.20;1.37;;;;;;;;;;5047540;28;20483;-79
2023/08/22 14:26:00;;;;;;;1.87;1.20;;;;;;;;;;5048629;28;20460;-79
2023/08/22 14:28:26;;;;;;;1.20;1.10;;;;;;;;;;5047267;28;20484;-79
2023/08/22 14:30:58;;;;;;;3.57;1.40;;;;;;;;;;5050596;28;20472;-79
2023/08/22 14:33:24;;;;;;;1.10;1.00;;;;;;;;;;5042837;28;20563;-79
2023/08/22 14:35:50;;;;;;;1.30;1.20;;;;;;;;;;5048024;28;20547;-78
2023/08/22 14:38:17;;;;;;;3.27;1.40;;;;;;;;;;5048137;28;20544;-78
2023/08/22 14:40:52;;;;;;;2.50;1.47;;;;;;;;;;5047134;28;20459;-78